WetterOnline ( https://www.wetteronline.at )

Wetter aktuell Itzehoe

Aktuelles Wetter: Itzehoe (26m)

6-stündlich | Neueste Meldungen
Ortszeit Temperatur Wetter
Mi, 18.05. 8:00 14.6° C wolkig
Mi, 18.05. 2:00 14.6° C bedeckt
Di, 17.05. 20:00 18.9° C wolkenlos
Di, 17.05. 14:00 18.0° C bewölkt
Di, 17.05. 8:00 13.9° C leichter Regen
Di, 17.05. 2:00 13.9° C leichter Regen
Mo, 16.05. 20:00 19.0° C wolkig
Mo, 16.05. 14:00 23.3° C fast wolkenlos
Ortszeit Temperatur Wetter
Mi, 18.05. 11:30 20.3° C wolkenlos
Mi, 18.05. 11:20 20.3° C wolkenlos
Mi, 18.05. 11:10 20.0° C wolkenlos
Mi, 18.05. 11:00 19.5° C fast wolkenlos
Mi, 18.05. 10:50 19.5° C fast wolkenlos
Mi, 18.05. 10:40 19.4° C leicht bewölkt
Mi, 18.05. 10:30 18.8° C wolkig
Mi, 18.05. 10:00 18.2° C leicht bewölkt
Mi, 18.05. 9:30 16.6° C wolkig
Mi, 18.05. 9:00 15.7° C wolkig
Mi, 18.05. 8:30 15.5° C bewölkt
Ortszeit Relative Feuchte Sichtweite
Mi, 18.05. 8:00 71% 65 km
Mi, 18.05. 2:00 72% >70 km
Di, 17.05. 20:00 76% 50 km
Di, 17.05. 14:00 83% 30 km
Di, 17.05. 8:00 96% 7 km
Di, 17.05. 2:00 93% 14 km
Mo, 16.05. 20:00 56% 55 km
Mo, 16.05. 14:00 42% 45 km
Ortszeit Relative Feuchte Sichtweite
Mi, 18.05. 11:30 67% 50 km
Mi, 18.05. 11:20 67% -
Mi, 18.05. 11:10 68% -
Mi, 18.05. 11:00 69% 35 km
Mi, 18.05. 10:50 69% -
Mi, 18.05. 10:40 69% -
Mi, 18.05. 10:30 70% 55 km
Mi, 18.05. 10:00 70% 45 km
Mi, 18.05. 9:30 72% 65 km
Mi, 18.05. 9:00 72% 60 km
Mi, 18.05. 8:30 71% 55 km
Ortszeit Niederschlagsmenge Niederschlagsart
Mi, 18.05. 8:00 0.0 l/m2 in 12 Std. -
Mi, 18.05. 2:00 0.0 l/m2 in 6 Std. -
Di, 17.05. 20:00 1 l/m2 in 12 Std. -
Di, 17.05. 14:00 1 l/m2 in 6 Std. Regen
Di, 17.05. 8:00 11 l/m2 in 12 Std. Regen
Di, 17.05. 2:00 2 l/m2 in 6 Std. Regen
Mo, 16.05. 20:00 0.0 l/m2 in 12 Std. -
Mo, 16.05. 14:00 0.0 l/m2 in 6 Std. -
Ortszeit Niederschlagsmenge Niederschlagsart
Mi, 18.05. 11:30 0.0 l/m2 in 1 Std. -
Mi, 18.05. 11:20 keine Meldung -
Mi, 18.05. 11:10 keine Meldung -
Mi, 18.05. 11:00 0.0 l/m2 in 1 Std. -
Mi, 18.05. 10:50 keine Meldung -
Mi, 18.05. 10:40 keine Meldung -
Mi, 18.05. 10:30 0.0 l/m2 in 1 Std. -
Mi, 18.05. 10:00 0.0 l/m2 in 1 Std. -
Mi, 18.05. 9:30 0.0 l/m2 in 1 Std. -
Mi, 18.05. 9:00 0.0 l/m2 in 1 Std. -
Mi, 18.05. 8:30 0.0 l/m2 in 1 Std. -
Ortszeit Stärke Spitze Richtung
km/h Bft. km/h Grad Sektor
Mi, 18.05. 8:00 7 2 29 120° SO
Mi, 18.05. 2:00 11 2 25 110° O
Di, 17.05. 20:00 6 1 20 110° O
Di, 17.05. 14:00 7 2 14 60° NO
Di, 17.05. 8:00 0 0 11 - -
Di, 17.05. 2:00 7 2 31 90° O
Mo, 16.05. 20:00 15 3 39 70° O
Mo, 16.05. 14:00 11 2 32 110° O
Ortszeit Stärke Spitze Richtung
km/h Bft. km/h Grad Sektor
Mi, 18.05. 11:30 11 2 28 120° SO
Mi, 18.05. 11:20 11 2 - 120° SO
Mi, 18.05. 11:10 11 2 - 110° O
Mi, 18.05. 11:00 9 2 22 130° SO
Mi, 18.05. 10:50 9 2 - 130° SO
Mi, 18.05. 10:40 9 2 - 120° SO
Mi, 18.05. 10:30 7 2 22 120° SO
Mi, 18.05. 10:00 9 2 22 120° SO
Mi, 18.05. 9:30 7 2 22 120° SO
Mi, 18.05. 9:00 11 2 22 120° SO
Mi, 18.05. 8:30 9 2 20 120° SO
Ortszeit Untergrenze Bedeckung Gattung
total tief tief mittel hoch
Mi, 18.05. 8:00 1800 m 8/8 3/8 - - -
Mi, 18.05. 2:00 4800 m 8/8 8/8 - - -
Di, 17.05. 20:00 - 0/8 0/8 - - -
Di, 17.05. 14:00 2400 m 8/8 7/8 - - -
Di, 17.05. 8:00 90 m 8/8 8/8 - - -
Di, 17.05. 2:00 720 m 8/8 8/8 - - -
Mo, 16.05. 20:00 2700 m 6/8 2/8 - - -
Mo, 16.05. 14:00 10500 m 1/8 0/8 - - -
Ortszeit Bedeckungsgrad in Achtel und Wolkenuntergrenze
Mi, 18.05. 11:30 keine Wolken
Mi, 18.05. 11:20 keine Wolken
Mi, 18.05. 11:10 keine Wolken
Mi, 18.05. 11:00 1(10500m)
Mi, 18.05. 10:50 1(10500m)
Mi, 18.05. 10:40 2
Mi, 18.05. 10:30 5(4500m) 5(9000m)
Mi, 18.05. 10:00 2(4200m)
Mi, 18.05. 9:30 2(1800m) 6(2100m) 6(4200m)
Mi, 18.05. 9:00 3(2100m) 8(4200m) 8(5400m)
Mi, 18.05. 8:30 4(2100m) 8(4500m)
Ortszeit Luftdruck NN (hPa) Tendenz (hPa in 3 Std.)
Mi, 18.05. 8:00 1023 + 0,1
Mi, 18.05. 2:00 1023 + 0,5
Di, 17.05. 20:00 1021 + 0,3
Di, 17.05. 14:00 1021 + 0,8
Di, 17.05. 8:00 1020 + 1,1
Di, 17.05. 2:00 1019 + 1,5
Mo, 16.05. 20:00 1017 - 0,1
Mo, 16.05. 14:00 1017 - 1,2
Ortszeit Luftdruck NN (hPa) Tendenz (hPa in 3 Std.)
Mi, 18.05. 11:30 1022 - 0,5
Mi, 18.05. 11:20 1022 keine Meldung
Mi, 18.05. 11:10 1022 keine Meldung
Mi, 18.05. 11:00 1022 - 0,3
Mi, 18.05. 10:50 1022 keine Meldung
Mi, 18.05. 10:40 1023 keine Meldung
Mi, 18.05. 10:30 1023 - 0,4
Mi, 18.05. 10:00 1023 - 0,1
Mi, 18.05. 9:30 1023 0,0
Mi, 18.05. 9:00 1023 0,0
Mi, 18.05. 8:30 1023 - 0,1
Ortszeit Schneehöhe (cm)
Mi, 18.05. 8:00 -
Mi, 18.05. 2:00 -
Di, 17.05. 20:00 -
Di, 17.05. 14:00 -
Di, 17.05. 8:00 -
Di, 17.05. 2:00 -
Mo, 16.05. 20:00 -
Mo, 16.05. 14:00 -
Ortszeit Schneehöhe (cm)
Mi, 18.05. 11:30 -
Mi, 18.05. 11:20 -
Mi, 18.05. 11:10 -
Mi, 18.05. 11:00 -
Mi, 18.05. 10:50 -
Mi, 18.05. 10:40 -
Mi, 18.05. 10:30 -
Mi, 18.05. 10:00 -
Mi, 18.05. 9:30 -
Mi, 18.05. 9:00 -
Mi, 18.05. 8:30 -
Link zu dieser Seite / Seite empfehlen

Das Wetter in ...